Tiempo atmosférico en la estación meteorológica de Puebla De Don Rodrigo, Ciudad Real (485 m.)



Fecha
DESCASC
Temp. máxima en grados centígrados (hora)
DESCASC
Temp. mínima en grados centígrados (hora)
DESCASC
Temp. media en grados centígrados
DESCASC
Racha de viento máxima en m/sg (hora)
DESCASC
Velocidad máxima media en intervalos de 10 minutos(hora)
DESCASC
Precipitaciones diarias en mm
DESCASC
Precipitaciones de 00:00 a 06:00 en mm
DESCASC
Precipitaciones de 06:00 a 12:00 en mm
DESCASC
Precipitaciones de 12:00 a 18:00 en mm
DESCASC
Precipitaciones de 18:00 a 24:00 en mm
DESCASC
31-03-2020 15.2 (15:00) 4.5 (02:50) 9.8 10.56 (15:50) 6.11 (18:00) 33 2.9 14.6 12.7 2.8
30-03-2020 12.9 (12:30) 4.9 (23:20) 8.9 12.78 (13:00) 3.89 (22:30) 10 0 0 3 7
29-03-2020 21.1 (16:30) 0.7 (00:00) 10.9 6.39 (19:50) 3.06 (19:50) 0 0 0 0 0
28-03-2020 17.9 (15:40) 3.6 (00:00) 10.7 8.06 (13:10) 5 (13:20) 0 0 0 0 0
27-03-2020 10.5 (15:40) 2.9 (00:00) 6.7 10.83 (16:40) 5.83 (16:10) 0 0 0 0 0
26-03-2020 20.6 (15:50) 8.1 (00:00) 14.4 10.56 (13:30) 3.33 (13:50) 0 0 0 0 0
25-03-2020 20.8 (16:10) 4.9 (00:00) 12.8 8.06 (01:30) 4.72 (01:40) 0 0 0 0 0
24-03-2020 13.8 (16:00) 9 (00:00) 11.4 18.89 (17:00) 10.83 (13:30) 0.1 0 0.1 0 0
23-03-2020 17.9 (16:50) 3.9 (00:00) 10.9 11.94 (18:30) 6.11 (18:30) 0.1 0 0 0 0.1
22-03-2020 12.3 (12:20) 3.2 (06:50) 7.8 5.83 (14:10) 3.61 (14:20) 1.3 0 0 0.9 0.4
21-03-2020 13.7 (17:00) 6.2 (00:00) 9.9 10.83 (17:50) 6.11 (18:50) 8.3 1.2 4 0 3.1
20-03-2020 18.7 (14:40) 8.4 (00:00) 13.6 6.67 (15:10) 3.61 (10:50) 7.1 6.9 0.2 0 0
19-03-2020 19.4 (16:40) 6 (00:00) 12.7 8.89 (16:00) 4.72 (01:30) 0 0 0 0 0
18-03-2020 17.8 (13:30) 10.4 (00:00) 14.1 13.61 (09:30) 8.61 (12:20) 0 0 0 0 0
17-03-2020 18 (16:40) 3.5 (00:00) 10.8 17.78 (12:40) 7.22 (14:50) 0 0 0 0 0
16-03-2020 11.2 (13:50) 2.5 (00:00) 6.8 11.39 (04:30) 5.28 (13:30) 4.9 1.8 0 2.7 0.4
15-03-2020 22.8 (14:50) 6.5 (00:00) 14.6 10.56 (18:00) 6.94 (18:00) 6.3 0 0 1.9 4.4
14-03-2020 24.3 (16:30) 7.3 (00:00) 15.8 3.61 (15:40) 2.5 (15:40) 0 0 0 0 0
13-03-2020 24.3 (14:30) 7.3 (07:50) 15.8 5.83 (14:10) 2.22 (14:00) 0 0 0 0 0
12-03-2020 27.6 (15:20) 6.8 (00:00) 17.2 7.5 (15:20) 4.17 (13:50) 0 0 0 0 0
11-03-2020 29.5 (15:50) 5.2 (00:00) 17.3 3.61 (18:00) 2.22 (19:40) 0 0 0 0 0
10-03-2020 26.8 (15:50) 3.6 (00:00) 15.2 4.17 (19:50) 3.33 (20:00) 0 0 0 0 0
09-03-2020 22.2 (15:10) 2.5 (00:00) 12.4 6.11 (17:40) 3.61 (17:30) 0 0 0 0 0
08-03-2020 20.6 (15:40) 0 (00:00) 10.3 6.94 (15:00) 3.06 (15:10) 0 0 0 0 0
07-03-2020 18.8 (16:50) 0 (00:00) 9.4 5 (14:10) 2.78 (00:40) 0 0 0 0 0
06-03-2020 17.3 (15:30) 4.8 (00:00) 11 9.72 (10:20) 3.61 (11:30) 0 0 0 0 0
05-03-2020 16.6 (15:50) 7.6 (00:00) 12.1 11.67 (22:50) 4.72 (12:40) 0.3 0 0.1 0.2 0
04-03-2020 16.3 (15:20) 9 (00:00) 12.6 7.5 (01:40) 3.61 (03:00) 0 0 0 0 0
03-03-2020 14.7 (16:50) 5.2 (00:00) 9.9 16.39 (14:20) 4.17 (13:50) 0 0 0 0 0
02-03-2020 15.6 (13:30) 6.4 (00:00) 11 18.89 (01:50) 8.06 (06:40) 17.7 14.5 3.2 0 0

Gráficas

Temp. máximas Temp. mínimas Temp. medias Precipitaciones Rachas de viento máximas Velocidades máximas media en intervalos de 10 minutos

Datos horarios

Fecha y hora oficial Temperatura (ºC) Velocidad del viento (km/h) Dirección del viento Racha (km/h) Dirección de racha Precipitación (mm) Presión (hPa) Tendencia (hPa) Humedad (%)
2020-03-31 23:00:00 8.9 3 Sudeste 7 Sudeste 0 947.1 2 96
2020-03-31 22:00:00 9.3 5 Sudeste 10 Sudeste 0 946.2 1.7 96
2020-03-31 21:00:00 9.7 4 Sur 13 Sudeste 0.5 945.2 1.4 96
2020-03-31 20:00:00 10.3 8 Este 13 Sudoeste 0.5 945.1 2 92
2020-03-31 19:00:00 10.5 6 Sur 30 Sudoeste 1.7 944.5 1.2 90
2020-03-31 18:00:00 12.4 22 Sur 32 Sudoeste 0 943.8 0.8 68
2020-03-31 17:00:00 12.6 18 Sur 30 Sur 0.5 943.1 -0.2 71
2020-03-31 16:00:00 10.8 9 Sudoeste 38 Sudoeste 4.5 943.3 0.3 90
2020-03-31 15:00:00 14.6 13 Sur 27 Sudoeste 3.5 943 0.4 67
2020-03-31 14:00:00 9.9 8 Sudoeste 22 Sudoeste 4.1 943.3 1.2 90
2020-03-31 13:00:00 10.5 11 Sudoeste 32 Sur 0.1 943 1 89
2020-03-31 12:00:00 9.8 19 Sur 30 Sur 1.2 942.6 0.7 92
2020-03-31 11:00:00 8 16 Sudeste 26 Este 1 942.1 0.4 97
2020-03-31 10:00:00 7 12 Sudeste 20 Sudeste 1.3 942 -0.2 97
2020-03-31 09:00:00 5.9 5 Este 8 Sur 4.1 941.9 0 97
2020-03-31 08:00:00 5.7 0 Calma 13 Este 3.6 941.7 -1 97
2020-03-31 07:00:00 5.5 7 Este 15 Sudeste 3.4 942.2 -1.7 97
2020-03-31 06:00:00 5.5 10 Sudeste 30 Este 1.6 941.9 -2.5 97
2020-03-31 05:00:00 5.2 7 Este 15 Este 0.7 942.7 -2.7 98
2020-03-31 04:00:00 4.7 9 Este 30 Este 0.5 943.9 -2.5 98
2020-03-31 03:00:00 4.8 8 Este 11 Este 0.1 944.4 -2.4 97
2020-03-31 02:00:00 4.8 5 Nordeste 14 Este 0 945.4 -1.9 96
2020-03-31 01:00:00 4.9 7 Este 13 Sur 0 946.4 -1.3 93
2020-03-31 00:00:00 5 8 Este 16 Sudeste 0 946.8 -0.8 94
2020-03-30 23:00:00 5.3 11 Sudeste 26 Este 0.2 947.3 0.4 93
2020-03-30 22:00:00 5.8 8 Este 14 Sudeste 0.5 947.7 0.6 94
2020-03-30 21:00:00 6.4 6 Nordeste 13 Norte 1.6 947.6 0 94
2020-03-30 20:00:00 7.8 4 Sudeste 16 Este 2.6 946.9 -0.6 95
2020-03-30 19:00:00 8.6 8 Este 16 Sudeste 2.1 947.1 -1.5 94
2020-03-30 18:00:00 9.5 8 Sudeste 16 Sudeste 0.5 947.6 -1.8 89
2020-03-30 17:00:00 10.3 7 Nordeste 14 Sudeste 0 947.5 -2.1 77
2020-03-30 16:00:00 9.6 9 Sudeste 16 Este 0.8 948.6 -1.5 94
2020-03-30 15:00:00 9.5 2 Nordeste 14 Oeste 1.7 949.4 -1.1 88
2020-03-30 14:00:00 12.3 8 Este 18 Sudeste 0 949.6 -1.2 64
2020-03-30 13:00:00 12.1 12 Este 46 Este 0 950.1 -0.5 68
2020-03-30 12:00:00 12.2 5 Este 8 Este 0 950.5 0 67
2020-03-30 11:00:00 10.6 5 Nordeste 11 Nordeste 0 950.8 0.4 72
2020-03-30 10:00:00 10.1 0 Calma 6 Nordeste 0 950.6 0.1 75
2020-03-30 09:00:00 6.4 0 Calma 3 Noroeste 0 950.5 -0.4 90
2020-03-30 08:00:00 6.1 2 Nordeste 6 Norte 0 950.4 -1.1 90
2020-03-30 07:00:00 7.3 0 Calma 6 Noroeste 0 950.5 -1.4 86
2020-03-30 06:00:00 7.5 0 Calma 7 Sudoeste 0 950.9 -1.5 85
2020-03-30 05:00:00 7 0 Calma 3 Sudoeste 0 951.5 -1.3 82
2020-03-30 04:00:00 6.8 0 Calma 8 Sudoeste 0 951.9 -1.5 82
2020-03-30 03:00:00 7.5 0 Calma 5 Sudoeste 0 952.4 -1.2 76
2020-03-30 02:00:00 8.2 3 Sudoeste 8 Sudoeste 0 952.8 -1.1 74
2020-03-30 01:00:00 10.1 0 Calma 8 Sudoeste 0 953.4 -0.3 58
2020-03-30 00:00:00 10.7 0 Calma 9 Sudoeste 0 953.6 0.2 51
2020-03-29 23:00:00 12.4 5 Sudoeste 10 Sudoeste 0 953.9 0.3 43
2020-03-29 22:00:00 12.3 4 Oeste 9 Sudoeste 0 953.7 0.4 43
2020-03-29 21:00:00 13.6 6 Sudoeste 17 Sudoeste 0 953.4 -0.1 36
2020-03-29 20:00:00 15.7 10 Sudoeste 23 Oeste 0 953.6 -0.3 32
2020-03-29 19:00:00 17.1 9 Sudoeste 19 Sudoeste 0 953.3 -1.2 28
2020-03-29 18:00:00 20.6 5 Sur 14 Sur 0 953.5 -1.6 26
2020-03-29 17:00:00 19.7 5 Este 14 Noroeste 0 953.9 -2.1 25
2020-03-29 16:00:00 20.5 3 Oeste 14 Este 0 954.5 -2 24
2020-03-29 15:00:00 18.3 4 Nordeste 15 Sudeste 0 955.1 -1.9 26
2020-03-29 14:00:00 18.7 4 Este 15 Este 0 956 -1.6 26
2020-03-29 13:00:00 16.4 4 Este 10 Este 0 956.5 -0.8 35
2020-03-29 12:00:00 12.4 5 Este 10 Este 0 957 -0.1 48
2020-03-29 11:00:00 9.8 4 Este 9 Este 0 957.6 0.7 57
2020-03-29 10:00:00 5.7 4 Este 6 Este 0 957.3 0.7 72
2020-03-29 09:00:00 3.8 0 Calma 3 Sudeste 0 957.1 0.4 87
2020-03-29 08:00:00 0.8 0 Calma 0 Calma 0 956.9 0.1 96
2020-03-29 07:00:00 1.3 0 Calma 2 Norte 0 956.6 -0.4 96
2020-03-29 06:00:00 1.6 0 Calma 4 Sudoeste 0 956.7 -0.6 94
2020-03-29 05:00:00 2.3 0 Calma 4 Norte 0 956.8 -0.5 93
2020-03-29 03:00:00 4.2 0 Calma 2 Nordeste 0 957.3 0.4 81
2020-03-29 01:00:00 5.3 0 Calma 3 Nordeste 0 957.3 0.7 72
2020-03-29 00:00:00 7 0 Calma 3 Sudoeste 0 957.3 1.2 56
2020-03-28 23:00:00 8.6 0 Calma 5 Nordeste 0 956.9 1.7 47
2020-03-28 22:00:00 10.5 4 Este 8 Sur 0 956.6 1.7 40
2020-03-28 21:00:00 10.9 0 Calma 12 Nordeste 0 956.1 1.5 43
2020-03-28 20:00:00 12.7 2 Sudeste 12 Este 0 955.2 0.8 39
2020-03-28 19:00:00 14.7 9 Este 18 Sudeste 0 954.9 0.6 34
2020-03-28 18:00:00 15.3 8 Sudeste 17 Nordeste 0 954.6 -0.1 35
2020-03-28 17:00:00 16.5 10 Sudeste 26 Sudeste 0 954.4 -0.5 34
2020-03-28 16:00:00 16.3 11 Este 24 Este 0 954.3 -1 35
2020-03-28 15:00:00 16.2 12 Sudeste 26 Sudeste 0 954.7 -1.2 37
2020-03-28 14:00:00 15.3 14 Sudeste 29 Sudeste 0 954.9 -0.9 41
2020-03-28 13:00:00 15 14 Sur 26 Sur 0 955.3 0 43
2020-03-28 12:00:00 14.3 10 Este 22 Este 0 955.9 0.9 49
2020-03-28 11:00:00 11.9 13 Este 27 Este 0 955.8 1.5 55
2020-03-28 10:00:00 9.5 10 Sudeste 23 Este 0 955.3 1.6 63
2020-03-28 09:00:00 8.2 9 Sudeste 25 Este 0 955 1.4 70
2020-03-28 08:00:00 5.8 12 Este 24 Este 0 954.3 1.2 80
2020-03-28 07:00:00 4.6 6 Este 19 Este 0 953.7 0.8 87
2020-03-28 06:00:00 4.6 11 Este 20 Este 0 953.6 0.4 84
2020-03-28 05:00:00 5.1 9 Sudeste 16 Sudeste 0 953.1 -0.1 83
2020-03-28 04:00:00 4.1 5 Sur 10 Nordeste 0 952.9 0.1 87
2020-03-28 03:00:00 4.4 3 Nordeste 23 Sudeste 0 953.2 0.2 83
2020-03-28 02:00:00 4.5 12 Este 19 Este 0 953.2 0.9 83
2020-03-28 01:00:00 4.2 6 Este 12 Este 0 952.8 0.8 81
2020-03-28 00:00:00 4.9 10 Este 17 Nordeste 0 953 1.6 77
2020-03-27 23:00:00 5 5 Este 11 Nordeste 0 952.3 1.7 76
2020-03-27 22:00:00 5.9 7 Este 16 Este 0 952 1.8 72
2020-03-27 21:00:00 6.3 7 Este 18 Nordeste 0 951.4 1.9 69
2020-03-27 20:00:00 7.6 12 Este 27 Nordeste 0 950.6 1.3 61
2020-03-27 19:00:00 8.2 15 Nordeste 28 Este 0 950.2 0.9 60
2020-03-27 18:00:00 8.9 17 Este 34 Este 0 949.5 0.6 59
2020-03-27 17:00:00 9.2 14 Nordeste 39 Este 0 949.3 0.8 58
2020-03-27 16:00:00 9.1 19 Nordeste 68 Nordeste 0 949.3 0.3 59
2020-03-27 15:00:00 9.6 19 Este 28 Este 0 948.9 0.1 59
2020-03-27 14:00:00 8.5 17 Nordeste 33 Nordeste 0 948.5 0.3 64
2020-03-27 13:00:00 8.3 16 Nordeste 29 Nordeste 0 949 1.2 64
2020-03-27 12:00:00 8.7 15 Nordeste 27 Nordeste 0 948.8 1.5 63
2020-03-27 11:00:00 9.1 5 Norte 11 Nordeste 0 948.2 1.5 62
2020-03-27 10:00:00 8.6 0 Calma 9 Este 0 947.8 1.6 65
2020-03-27 09:00:00 5.5 3 Sur 12 Este 0 947.3 1.5 78
2020-03-27 08:00:00 4.8 5 Nordeste 9 Nordeste 0 946.7 1 81
2020-03-27 07:00:00 3.2 6 Nordeste 10 Nordeste 0 946.2 0.7 93
2020-03-27 06:00:00 4.9 0 Calma 5 Oeste 0 945.8 -0.1 90
2020-03-27 05:00:00 4.2 3 Sudoeste 6 Norte 0 945.7 -1.4 88
2020-03-27 04:00:00 5.4 3 Sudoeste 4 Sudoeste 0 945.5 -1.4 81
2020-03-27 03:00:00 6.5 0 Calma 5 Noroeste 0 945.9 -1.5 69
2020-03-27 02:00:00 7.6 0 Calma 5 Sudeste 0 947.1 -0.2 60
2020-03-27 01:00:00 8.3 2 Sudeste 9 Sudeste 0 946.9 0 57
2020-03-27 00:00:00 9.5 0 Calma 9 Nordeste 0 947.4 1 56
2020-03-26 23:00:00 9.8 0 Calma 16 Sudoeste 0 947.3 1.1 51
2020-03-26 22:00:00 10 3 Sur 13 Nordeste 0 946.9 1.1 48
2020-03-26 21:00:00 11.5 4 Noroeste 13 Oeste 0 946.4 0.8 43
2020-03-26 20:00:00 13.5 6 Sudoeste 15 Sudoeste 0 946.2 0.4 36
2020-03-26 19:00:00 15.7 8 Oeste 22 Oeste 0 945.8 -0.6 33
2020-03-26 18:00:00 17.2 8 Oeste 24 Oeste 0 945.6 -0.7 33
2020-03-26 17:00:00 20.2 5 Oeste 28 Sudoeste 0 945.8 -1.4 30
2020-03-26 16:00:00 19.4 9 Oeste 28 Oeste 0 946.4 -1.4 32
2020-03-26 15:00:00 19.5 7 Oeste 26 Sudoeste 0 946.3 -2.1 37
2020-03-26 14:00:00 18.4 8 Oeste 38 Oeste 0 947.2 -1.7 38
2020-03-26 13:00:00 18.1 4 Oeste 18 Sudoeste 0 947.8 -1.4 42
2020-03-26 12:00:00 15.6 5 Este 13 Este 0 948.4 -0.9 54
2020-03-26 11:00:00 14.3 2 Este 10 Este 0 948.9 -0.3 62
2020-03-26 10:00:00 11.1 3 Sudoeste 10 Sudoeste 0 949.2 0.4 77
2020-03-26 09:00:00 10.3 0 Calma 7 Norte 0 949.3 0.8 87
2020-03-26 08:00:00 9.5 3 Sudoeste 7 Oeste 0 949.2 0.3 93
2020-03-26 07:00:00 9.2 3 Sudoeste 9 Oeste 0 948.8 -0.8 93
2020-03-26 06:00:00 9 6 Oeste 9 Oeste 0 948.5 -1.6 92
2020-03-26 05:00:00 8.6 0 Calma 8 Oeste 0 948.9 -1 90
2020-03-26 04:00:00 9.4 2 Norte 7 Oeste 0 949.6 -1.6 84
2020-03-26 03:00:00 10 4 Sudoeste 12 Sudoeste 0 950.1 -1.3 81
2020-03-26 02:00:00 10.7 6 Sudoeste 13 Oeste 0 949.9 -1.7 77
2020-03-26 01:00:00 10.2 3 Sudoeste 8 Oeste 0 951.2 -0.6 75
2020-03-26 00:00:00 10.8 5 Oeste 13 Oeste 0 951.4 -0.2 70
2020-03-25 23:00:00 11 3 Sudoeste 9 Sudoeste 0 951.6 0.2 67
2020-03-25 22:00:00 11.2 6 Sudoeste 19 Sudoeste 0 951.8 0.4 67
2020-03-25 21:00:00 12 6 Oeste 9 Oeste 0 951.6 0.3 63
2020-03-25 20:00:00 13.4 5 Oeste 15 Oeste 0 951.4 -0.1 58
2020-03-25 19:00:00 14.5 6 Oeste 24 Sudoeste 0 951.4 -0.4 50
2020-03-25 18:00:00 16.5 11 Oeste 27 Oeste 0 951.3 -1 40
2020-03-25 17:00:00 18.7 4 Oeste 15 Oeste 0 951.5 -1.8 32
2020-03-25 16:00:00 19.9 4 Este 18 Sudoeste 0 951.8 -2.4 30
2020-03-25 15:00:00 19.1 5 Sudoeste 15 Oeste 0 952.3 -2.2 34
2020-03-25 14:00:00 15.8 0 Calma 21 Sudoeste 0 953.3 -1.3 36
2020-03-25 13:00:00 17.8 3 Oeste 15 Este 0 954.2 -0.5 35
2020-03-25 12:00:00 15 4 Este 16 Este 0 954.5 -0.1 36
2020-03-25 11:00:00 13 10 Este 19 Este 0 954.6 -0.1 43
2020-03-25 10:00:00 10.9 5 Este 10 Este 0 954.7 0.3 58
2020-03-25 09:00:00 8.4 4 Nordeste 7 Nordeste 0 954.6 0.7 74
2020-03-25 08:00:00 6.8 0 Calma 9 Oeste 0 954.7 0.9 77
2020-03-25 07:00:00 5.8 6 Oeste 9 Oeste 0 954.4 0.7 82
2020-03-25 06:00:00 5.4 5 Sudoeste 12 Sudoeste 0 953.9 -0.3 78
2020-03-25 05:00:00 6.4 2 Sudeste 9 Nordeste 0 953.8 -0.2 74
2020-03-25 04:00:00 7.4 4 Sudeste 21 Sudeste 0 953.7 -0.8 70
2020-03-25 03:00:00 8.1 8 Sudeste 22 Sudeste 0 954.2 -0.2 69
2020-03-25 02:00:00 8.5 12 Sudeste 29 Sudeste 0 954 0.1 66
2020-03-25 01:00:00 8.9 9 Este 22 Este 0 954.5 0.9 67
2020-03-25 00:00:00 9.1 15 Sudeste 26 Sudeste 0 954.4 1.2 68
2020-03-24 23:00:00 9.5 9 Sudeste 24 Sudeste 0 953.9 1.1 69
2020-03-24 22:00:00 9.4 16 Este 33 Este 0 953.6 1.5 67
2020-03-24 21:00:00 10.3 16 Este 38 Nordeste 0 953.2 1.8 65
2020-03-24 20:00:00 10.7 19 Nordeste 66 Este 0 952.8 1.8 63
2020-03-24 19:00:00 11.8 26 Este 46 Este 0 952.1 1 59
2020-03-24 18:00:00 12.3 33 Este 55 Nordeste 0 951.4 0.4 58
2020-03-24 17:00:00 13.5 26 Este 68 Este 0 951 -0.2 55
2020-03-24 16:00:00 13.4 25 Este 51 Nordeste 0 951.1 -0.4 55
2020-03-24 15:00:00 13.3 31 Nordeste 58 Nordeste 0 951 -0.9 56
2020-03-24 14:00:00 13.1 27 Este 62 Nordeste 0 951.2 -0.1 59
2020-03-24 13:00:00 12 31 Este 64 Nordeste 0 951.5 0.2 64
2020-03-24 12:00:00 11.2 27 Nordeste 57 Nordeste 0 951.9 0.6 73
2020-03-24 11:00:00 12.3 32 Este 56 Este 0.1 951.3 0.5 65
2020-03-24 10:00:00 11.3 28 Este 47 Este 0 951.3 0.7 64
2020-03-24 09:00:00 10.7 21 Este 41 Este 0 951.3 0.6 67
2020-03-24 08:00:00 10.2 21 Este 45 Este 0 950.8 0 69
2020-03-24 07:00:00 10.3 14 Este 26 Nordeste 0 950.6 -0.2 73
2020-03-24 06:00:00 9.9 12 Este 27 Nordeste 0 950.7 -0.6 75
2020-03-24 05:00:00 10.1 14 Este 28 Este 0 950.8 -0.6 75
2020-03-24 04:00:00 10 17 Este 31 Este 0 950.8 -0.9 73
2020-03-24 03:00:00 10.4 19 Este 35 Este 0 951.3 -0.5 75
2020-03-24 02:00:00 10 19 Este 36 Este 0 951.4 -0.4 77
2020-03-24 01:00:00 10.2 15 Este 28 Este 0 951.7 -0.1 82
2020-03-24 00:00:00 10.1 12 Este 28 Este 0.1 951.8 0.6 86
2020-03-23 23:00:00 10.4 21 Este 34 Este 0 951.8 1.2 77
2020-03-23 22:00:00 11.6 20 Este 32 Nordeste 0 951.8 1.5 64
2020-03-23 21:00:00 11.2 4 Este 15 Este 0 951.2 1.8 63
2020-03-23 20:00:00 11.6 13 Este 29 Este 0 950.6 1.4 57
2020-03-23 19:00:00 12.7 17 Sudeste 43 Sur 0 950.3 0.6 57
2020-03-23 18:00:00 14.6 15 Nordeste 26 Nordeste 0 949.4 -0.8 38
2020-03-23 17:00:00 15.5 14 Sudeste 24 Este 0 949.2 -1.8 35
2020-03-23 16:00:00 17 12 Este 29 Sudeste 0 949.7 -1.9 35
2020-03-23 15:00:00 15.7 19 Sudeste 30 Sur 0 950.2 -1.9 41
2020-03-23 14:00:00 14.1 15 Sudeste 41 Sudeste 0 951 -1.6 43
2020-03-23 13:00:00 14.3 7 Sudeste 13 Este 0 951.6 -0.9 54
2020-03-23 12:00:00 12 4 Sudeste 14 Sudeste 0 952.1 0.2 67
2020-03-23 11:00:00 10.9 5 Este 12 Sudeste 0 952.6 0.7 73
2020-03-23 10:00:00 8 2 Nordeste 5 Nordeste 0 952.5 1 96
2020-03-23 09:00:00 6.5 0 Calma 5 Nordeste 0 951.9 1.1 97
2020-03-23 08:00:00 4.8 0 Calma 5 Noroeste 0 951.9 1.2 96
2020-03-23 07:00:00 5 0 Calma 8 Oeste 0 951.5 0.9 96
2020-03-23 06:00:00 5.7 0 Calma 8 Norte 0 950.8 0.5 96
2020-03-23 05:00:00 6.1 0 Calma 6 Sudeste 0 950.7 -0.1 96
2020-03-23 04:00:00 6.4 0 Calma 5 Oeste 0 950.6 -0.3 96
2020-03-23 03:00:00 7.1 0 Calma 6 Norte 0 950.3 -0.6 96
2020-03-23 02:00:00 7.8 5 Sudeste 9 Sudeste 0 950.8 -0.1 96
2020-03-23 01:00:00 7.8 2 Oeste 6 Oeste 0 950.9 0.6 96
2020-03-23 00:00:00 8.2 3 Sudoeste 6 Oeste 0.3 950.9 0.4 96
2020-03-22 23:00:00 8.4 0 Calma 4 Noroeste 0 950.9 1.1 94
2020-03-22 22:00:00 8.7 2 Noroeste 6 Oeste 0 950.3 1.1 92
2020-03-22 21:00:00 8.8 2 Norte 6 Nordeste 0 950.5 1.7 85
2020-03-22 20:00:00 9.2 5 Este 10 Oeste 0 949.8 1.2 77
2020-03-22 19:00:00 9.2 3 Oeste 21 Norte 0.1 949.2 0.3 82
2020-03-22 18:00:00 10.6 4 Nordeste 6 Norte 0 948.8 -0.7 72
2020-03-22 17:00:00 10.9 0 Calma 9 Sudoeste 0 948.6 -1.1 70
2020-03-22 16:00:00 10 0 Calma 8 Sudeste 0.4 948.9 -0.9 76
2020-03-22 15:00:00 8.8 7 Sudeste 21 Sudeste 0.5 949.5 -0.6 81
2020-03-22 14:00:00 10.6 10 Sudeste 17 Sur 0 949.7 -0.3 71
2020-03-22 13:00:00 11.1 6 Sudeste 17 Sudeste 0 949.8 -0.1 61
2020-03-22 12:00:00 10.8 7 Sudeste 16 Sudeste 0 950.1 0.2 63
2020-03-22 11:00:00 9.6 2 Este 9 Sudeste 0 950 0.5 76
2020-03-22 10:00:00 7 4 Norte 10 Sudoeste 0 949.9 1 96
2020-03-22 09:00:00 5.1 3 Nordeste 7 Norte 0 949.9 1.2 98
2020-03-22 08:00:00 4.3 0 Calma 12 Norte 0 949.5 1.1 98
2020-03-22 07:00:00 4 2 Sudoeste 6 Oeste 0 948.9 0.1 98
2020-03-22 06:00:00 4.5 0 Calma 9 Sudoeste 0 948.7 -0.1 98
2020-03-22 05:00:00 4.6 3 Norte 4 Norte 0 948.4 -0.5 97
2020-03-22 04:00:00 5.4 0 Calma 6 Noroeste 0 948.8 -0.5 96
2020-03-22 03:00:00 5.9 0 Calma 10 Sur 0 948.8 -0.8 96
2020-03-22 02:00:00 6.8 5 Sudeste 11 Este 0 948.9 -0.6 96
2020-03-22 01:00:00 6.9 7 Sudeste 13 Sudeste 0 949.3 -0.2 96
2020-03-22 00:00:00 7.4 7 Sudeste 16 Sudeste 0.7 949.6 0.4 96
2020-03-21 23:00:00 7.5 8 Sudeste 16 Sudeste 1.3 949.5 0.7 94
2020-03-21 22:00:00 8.4 7 Sudeste 14 Sudeste 0.6 949.5 1.4 96
2020-03-21 21:00:00 8.4 8 Nordeste 23 Sur 0.5 949.2 1.4 94
2020-03-21 20:00:00 8.7 18 Sur 30 Sur 0 948.8 0.5 84
2020-03-21 19:00:00 9.3 22 Sudoeste 33 Sur 0 948.1 -0.5 76
2020-03-21 18:00:00 11.9 6 Sur 39 Sur 0 947.8 -1.3 53
2020-03-21 17:00:00 12.5 8 Este 16 Este 0 948.3 -1.8 49
2020-03-21 16:00:00 12.6 6 Este 16 Este 0 948.6 -2.1 53
2020-03-21 15:00:00 11.9 5 Este 18 Este 0 949.1 -1.8 58
2020-03-21 14:00:00 10.5 8 Este 17 Sudeste 0 950.1 -1 72
2020-03-21 13:00:00 10 8 Este 15 Este 0 950.7 -0.3 77
2020-03-21 12:00:00 8.5 9 Sudeste 15 Sudeste 0 950.9 0.3 87
2020-03-21 11:00:00 7.7 6 Sudeste 10 Sudeste 0 951.1 0.3 90
2020-03-21 10:00:00 6.8 3 Nordeste 11 Este 0.8 951 1.2 93
2020-03-21 09:00:00 6.3 5 Nordeste 20 Sudoeste 1.2 950.6 1.1 93
2020-03-21 08:00:00 6.6 7 Sudoeste 22 Sudoeste 0.7 950.8 1.9 93
2020-03-21 07:00:00 8.2 9 Sudoeste 32 Sudoeste 1.3 949.8 0.7 93
2020-03-21 06:00:00 9 10 Sudoeste 33 Sudoeste 1.2 949.5 -0.5 93
2020-03-21 05:00:00 9.4 7 Este 13 Este 0 948.9 -1.6 88
2020-03-21 04:00:00 9.6 5 Este 23 Este 0 949.1 -2 85
2020-03-21 03:00:00 9.7 10 Este 21 Este 0 950 -1 85
2020-03-21 02:00:00 10.2 12 Este 17 Este 0 950.5 0.2 82
2020-03-21 01:00:00 10.3 10 Sudeste 20 Sudeste 0 951.1 0.3 77
2020-03-21 00:00:00 10.8 10 Sudeste 22 Sudeste 0 951 1.4 77
2020-03-20 23:00:00 10.9 6 Este 9 Este 0 950.3 0 83
2020-03-20 22:00:00 11.9 5 Sudeste 9 Sudeste 0 950.8 0.5 77
2020-03-20 21:00:00 12.8 5 Sudoeste 13 Sudoeste 0 949.6 -0.6 70
2020-03-20 20:00:00 14.3 11 Sudoeste 22 Sur 0 950.3 -0.5 64
2020-03-20 19:00:00 16.3 5 Sur 9 Este 0 950.3 -0.9 48
2020-03-20 18:00:00 16.8 5 Sudeste 11 Sudeste 0 950.2 -1.6 45
2020-03-20 17:00:00 17 8 Sudeste 16 Sur 0 950.8 -1.6 43
2020-03-20 16:00:00 17.3 9 Sudeste 24 Este 0 951.2 -2 43
2020-03-20 15:00:00 17.2 12 Este 21 Este 0 951.8 -1.8 43
2020-03-20 14:00:00 17.1 9 Este 22 Este 0 952.4 -1.5 43
2020-03-20 13:00:00 16.5 8 Sudeste 19 Este 0 953.2 -0.5 47
2020-03-20 12:00:00 14.6 11 Este 19 Este 0 953.6 0.5 54
2020-03-20 11:00:00 12.5 13 Este 21 Sudeste 0 953.9 1 64
2020-03-20 10:00:00 11.3 10 Sudeste 19 Este 0 953.7 0.8 72
2020-03-20 09:00:00 9.4 7 Sudeste 15 Sudeste 0 953.1 0.3 88
2020-03-20 08:00:00 8.7 6 Sudeste 20 Sudeste 0 952.9 0.1 93
2020-03-20 07:00:00 8.9 8 Sudeste 15 Sudeste 0.2 952.9 -0.1 96
2020-03-20 06:00:00 9 5 Este 8 Este 1.5 952.8 -0.4 96
2020-03-20 05:00:00 9.3 5 Nordeste 12 Sudeste 1.3 952.8 -0.6 94
2020-03-20 04:00:00 9.4 7 Sudeste 13 Este 4.1 953 -0.4 92
2020-03-20 03:00:00 11 2 Sudeste 12 Este 0 953.2 -0.5 73
2020-03-20 02:00:00 11.3 5 Sudeste 13 Sudeste 0 953.4 -0.3 70
2020-03-20 01:00:00 11.9 6 Este 15 Este 0 953.4 -0.1 67
2020-03-20 00:00:00 12.4 8 Este 17 Este 0 953.7 0.2 63
2020-03-19 23:00:00 12.8 10 Este 20 Este 0 953.7 0.4 61
2020-03-19 22:00:00 13.5 9 Este 22 Sudeste 0 953.5 0.2 58
2020-03-19 21:00:00 14.2 6 Este 14 Este 0 953.5 0.2 58
2020-03-19 20:00:00 15.1 3 Nordeste 6 Nordeste 0 953.3 -0.5 51
2020-03-19 19:00:00 17.3 0 Calma 11 Sur 0 953.3 -0.9 47
2020-03-19 18:00:00 18 7 Sudeste 18 Sur 0 953.3 -1.4 44
2020-03-19 17:00:00 18.9 9 Sudeste 24 Nordeste 0 953.8 -1.9 43
2020-03-19 16:00:00 18 13 Nordeste 32 Este 0 954.2 -2.4 43
2020-03-19 15:00:00 18.3 8 Nordeste 22 Este 0 954.7 -3 43
2020-03-19 14:00:00 17.4 12 Nordeste 25 Este 0 955.7 -2.3 43
2020-03-19 13:00:00 16.7 9 Este 19 Sudeste 0 956.6 -1.7 47
2020-03-19 12:00:00 15.9 8 Sudeste 21 Sudeste 0 957.7 -0.6 53
2020-03-19 11:00:00 13.2 12 Sudeste 20 Este 0 958 0 61
2020-03-19 10:00:00 10.7 13 Este 20 Este 0 958.3 0.1 70
2020-03-19 09:00:00 9.1 9 Sudeste 22 Sudeste 0 958.3 0 77
2020-03-19 08:00:00 6.9 12 Sudeste 24 Este 0 958 -0.2 87
2020-03-19 07:00:00 6.2 9 Este 13 Este 0 958.2 0.1 85
2020-03-19 06:00:00 8 6 Sudeste 18 Sudeste 0 958.3 0.1 74
2020-03-19 05:00:00 8.5 12 Sudeste 22 Sudeste 0 958.2 -0.3 63
2020-03-19 04:00:00 9.3 8 Sudeste 19 Sudeste 0 958.1 -0.7 54
2020-03-19 03:00:00 10 10 Este 28 Nordeste 0 958.2 -0.9 50
2020-03-19 02:00:00 10.8 10 Este 31 Sudeste 0 958.5 -1.2 46
2020-03-19 01:00:00 11.3 7 Este 20 Nordeste 0 958.8 -0.8 53
2020-03-19 00:00:00 12.1 15 Este 28 Este 0 959.1 -0.3 55
2020-03-18 23:00:00 12.3 12 Este 22 Este 0 959.7 0.4 56
2020-03-18 22:00:00 12.9 15 Este 28 Nordeste 0 959.6 1.1 56
2020-03-18 21:00:00 13.2 9 Nordeste 24 Este 0 959.4 0.9 55
2020-03-18 20:00:00 13.6 15 Este 41 Este 0 959.3 0.6 52
2020-03-18 19:00:00 14.7 23 Este 39 Este 0 958.5 -0.6 50
2020-03-18 18:00:00 15.7 21 Este 39 Sudeste 0 958.5 -0.6 50
2020-03-18 17:00:00 16.5 19 Este 33 Este 0 958.7 -1 50
2020-03-18 16:00:00 16.4 18 Nordeste 35 Este 0 959.1 -0.8 51
2020-03-18 15:00:00 16.5 24 Este 41 Nordeste 0 959.1 -1.6 50
2020-03-18 14:00:00 17.4 23 Este 46 Este 0 959.7 -1.4 47
2020-03-18 13:00:00 16.8 24 Este 46 Este 0 959.9 -1.4 50
2020-03-18 12:00:00 14.8 24 Este 47 Este 0 960.7 0.1 53
2020-03-18 11:00:00 15.3 18 Este 41 Este 0 961.1 0.8 56
2020-03-18 10:00:00 13.6 22 Este 49 Este 0 961.3 0.8 60
2020-03-18 09:00:00 11.6 21 Este 46 Este 0 960.6 0.4 67
2020-03-18 08:00:00 10.7 27 Este 46 Nordeste 0 960.3 0.6 70
2020-03-18 07:00:00 10.7 16 Este 40 Este 0 960.5 0 69
2020-03-18 06:00:00 10.9 25 Este 47 Este 0 960.2 -0.5 69
2020-03-18 05:00:00 10.8 19 Este 32 Este 0 959.7 -1 72
2020-03-18 04:00:00 10.6 17 Este 32 Nordeste 0 960.5 -0.3 71
2020-03-18 03:00:00 11.3 21 Este 36 Este 0 960.7 -0.3 70
2020-03-18 02:00:00 11.6 23 Este 44 Este 0 960.7 -0.6 70
2020-03-18 01:00:00 12.5 19 Este 42 Este 0 960.8 -0.3 73
2020-03-18 00:00:00 12.9 23 Este 41 Este 0 961 0.4 74
2020-03-17 23:00:00 12.8 23 Este 38 Este 0 961.3 1.5 76
2020-03-17 22:00:00 13.2 25 Este 42 Nordeste 0 961.1 1.7 74
2020-03-17 21:00:00 13.3 19 Este 34 Este 0 960.6 2 70
2020-03-17 20:00:00 14.6 23 Este 42 Nordeste 0 959.8 1.3 60
2020-03-17 19:00:00 15.4 19 Este 32 Este 0 959.4 1.1 52
2020-03-17 18:00:00 16.1 9 Este 33 Este 0 958.6 0.3 36
2020-03-17 17:00:00 17.1 20 Este 39 Sudeste 0 958.5 -0.6 32
2020-03-17 16:00:00 15.1 23 Este 40 Este 0 958.3 -1.1 37
2020-03-17 15:00:00 15.7 24 Este 43 Este 0 958.3 -1.1 36
2020-03-17 14:00:00 15.2 20 Este 61 Este 0 959.1 -0.3 35
2020-03-17 13:00:00 13.1 22 Este 64 Este 0 959.4 0.1 38
2020-03-17 12:00:00 11.9 15 Este 28 Este 0 959.4 0.8 43
2020-03-17 11:00:00 11.1 14 Este 22 Este 0 959.4 1.7 52
2020-03-17 10:00:00 9.4 9 Sudeste 17 Sudeste 0 959.3 2.4 60
2020-03-17 09:00:00 6.6 10 Este 22 Nordeste 0 958.6 2.4 71
2020-03-17 08:00:00 4.8 6 Este 40 Sudeste 0 957.7 2.3 76
2020-03-17 07:00:00 3.6 6 Sudeste 12 Sudeste 0 956.9 1.6 82
2020-03-17 06:00:00 5.1 4 Este 16 Este 0 956.2 0.5 72
2020-03-17 05:00:00 5.1 6 Este 18 Este 0 955.4 0.2 75
2020-03-17 04:00:00 4.4 10 Este 34 Este 0 955.3 0.3 82
2020-03-17 03:00:00 4.7 6 Sudeste 13 Este 0 955.7 0.7 81
2020-03-17 02:00:00 4.4 8 Sudeste 14 Sudeste 0 955.2 0.7 84
2020-03-17 01:00:00 4.6 6 Este 12 Este 0 955 1.7 91
2020-03-17 00:00:00 5 3 Sudeste 11 Este 0 955 2.3 87
2020-03-16 23:00:00 5.2 4 Nordeste 8 Norte 0 954.5 2.8 91
2020-03-16 22:00:00 4.7 0 Calma 6 Sur 0 953.3 2 95
2020-03-16 21:00:00 4.6 0 Calma 5 Sudoeste 0 952.7 1.9 96
2020-03-16 20:00:00 4.9 4 Sudoeste 8 Oeste 0 951.7 1.2 96
2020-03-16 19:00:00 4.7 5 Oeste 11 Sudoeste 0.4 951.3 0.6 96
2020-03-16 18:00:00 4.8 4 Sudoeste 9 Sudoeste 0 950.8 0.2 93
2020-03-16 17:00:00 4.6 2 Oeste 9 Oeste 0.7 950.5 0.7 93
2020-03-16 16:00:00 4.1 3 Noroeste 20 Norte 2 950.7 0.3 92
2020-03-16 15:00:00 5.1 7 Norte 31 Sur 0 950.6 -0.3 77
2020-03-16 14:00:00 10.2 17 Sur 29 Sudoeste 0 949.8 -1.1 50
2020-03-16 13:00:00 8.5 12 Sudoeste 21 Sudoeste 0 950.4 -0.4 56
2020-03-16 12:00:00 8.6 13 Sudoeste 28 Sudoeste 0 950.9 0.3 63
2020-03-16 11:00:00 6.7 9 Oeste 23 Oeste 0 950.9 0.6 64
2020-03-16 10:00:00 4.8 7 Sudoeste 23 Sudoeste 0 950.8 0.8 74
2020-03-16 09:00:00 4.7 7 Oeste 21 Oeste 0 950.6 0.7 75
2020-03-16 08:00:00 3.1 3 Oeste 22 Oeste 0 950.3 0.8 77
2020-03-16 07:00:00 2.8 8 Sudoeste 23 Oeste 0 950 0.3 78
2020-03-16 06:00:00 3.1 6 Oeste 24 Oeste 0 949.9 -0.1 81
2020-03-16 05:00:00 3.7 13 Oeste 41 Oeste 0 949.5 -1.2 81
2020-03-16 04:00:00 4.2 9 Sudoeste 25 Sudoeste 0 949.7 -0.7 82
2020-03-16 03:00:00 5.9 8 Sudoeste 32 Sudoeste 0.4 950 -0.5 84
2020-03-16 02:00:00 7.1 11 Sudoeste 23 Sudoeste 0.4 950.7 0.2 88
2020-03-16 01:00:00 8.6 5 Sudoeste 28 Oeste 1 950.4 -0.5 86
2020-03-16 00:00:00 11 7 Sudoeste 23 Sudoeste 0.1 950.5 -0.3 68
2020-03-15 23:00:00 11.2 5 Sudoeste 14 Oeste 0 950.5 0.1 77
2020-03-15 22:00:00 11.3 2 Este 12 Sudeste 0 950.9 0.8 93
2020-03-15 21:00:00 11.3 7 Este 14 Este 0.6 950.8 1.1 92
2020-03-15 20:00:00 12.1 3 Sur 12 Sudoeste 0 950.4 0.2 87
2020-03-15 19:00:00 11.8 8 Oeste 37 Sudoeste 3.7 950.1 -0.6 90
2020-03-15 18:00:00 12.3 25 Sudoeste 38 Sur 1.9 949.7 -1.3 76
2020-03-15 17:00:00 18.9 13 Sudoeste 27 Sur 0 950.2 -1.9 46
2020-03-15 16:00:00 19.1 5 Oeste 23 Sudoeste 0 950.7 -2.5 47
2020-03-15 15:00:00 20.8 8 Sudoeste 30 Sudoeste 0 951 -2.9 41
2020-03-15 14:00:00 21.2 15 Sudoeste 31 Sudoeste 0 952.1 -2.7 42
2020-03-15 13:00:00 20.7 15 Sudoeste 27 Sudoeste 0 953.2 -1.5 43
2020-03-15 12:00:00 19.4 8 Sur 20 Sur 0 953.9 -0.9 50
2020-03-15 11:00:00 15.3 4 Este 9 Nordeste 0 954.8 0.6 66
2020-03-15 10:00:00 10.3 0 Calma 6 Este 0 954.7 0.6 89
2020-03-15 09:00:00 9 4 Este 7 Nordeste 0 954.8 0.7 93
2020-03-15 08:00:00 7 0 Calma 5 Sudoeste 0 954.2 0.2 96
2020-03-15 07:00:00 7.6 0 Calma 4 Norte 0 954.1 -0.2 96
2020-03-15 06:00:00 8.2 0 Calma 3 Sudeste 0 954.1 -0.7 96
2020-03-15 05:00:00 9.2 0 Calma -- -- 0 954 -1.2 96
2020-03-15 04:00:00 9.5 0 Calma 3 Norte 0 954.3 -1.1 94
2020-03-15 03:00:00 10.1 0 Calma 3 Nordeste 0 954.8 -0.8 93
2020-03-15 02:00:00 10.8 0 Calma 3 Noroeste 0 955.2 -0.7 90
2020-03-15 01:00:00 11.3 0 Calma 3 Norte 0 955.4 -0.4 86
2020-03-15 00:00:00 13.1 0 Calma 4 Sudoeste 0 955.6 0.1 77
2020-03-14 23:00:00 13.6 4 Sudoeste 6 Sudoeste 0 955.9 0.5 75
2020-03-14 22:00:00 15.4 5 Sudoeste 10 Sudoeste 0 955.8 0.8 67
2020-03-14 21:00:00 15.8 5 Sudoeste 10 Sudoeste 0 955.5 0.6 66
2020-03-14 20:00:00 16.9 6 Sudoeste 9 Oeste 0 955.4 0.3 59
2020-03-14 19:00:00 20.3 4 Oeste 11 Oeste 0 955 -0.4 43
2020-03-14 18:00:00 21.2 4 Sudeste 13 Sur 0 954.9 -1.2 36
2020-03-14 17:00:00 23 6 Sur 13 Sur 0 955.1 -2 33
2020-03-14 16:00:00 22.5 4 Sur 13 Sur 0 955.4 -2.3 33
2020-03-14 15:00:00 22.7 3 Sur 9 Este 0 956.1 -2 35
2020-03-14 14:00:00 23 5 Sudeste 10 Sur 0 957.1 -1.6 40
2020-03-14 13:00:00 18.5 5 Nordeste 11 Nordeste 0 957.7 -0.5 57
2020-03-14 12:00:00 16.1 3 Este 10 Este 0 958.1 0.2 71
2020-03-14 11:00:00 12.2 5 Este 9 Sudeste 0 958.7 1.1 88
2020-03-14 10:00:00 10.7 0 Calma 6 Sudeste 0 958.2 1.4 94
2020-03-14 09:00:00 9 3 Sudeste 7 Este 0 957.9 1.5 97
2020-03-14 08:00:00 8.3 2 Norte 8 Noroeste 0 957.6 1.3 97
2020-03-14 07:00:00 8.5 0 Calma 8 Noroeste 0 956.8 0.3 97
2020-03-14 06:00:00 7.5 0 Calma 6 Oeste 0 956.4 -0.2 96
2020-03-14 05:00:00 9 0 Calma 5 Oeste 0 956.3 -0.4 96
2020-03-14 04:00:00 9.2 0 Calma 3 Este 0 956.5 0.2 96
2020-03-14 03:00:00 9.6 0 Calma 4 Sur 0 956.6 0.1 95
2020-03-14 02:00:00 10.9 4 Sudoeste 6 Sudoeste 0 956.7 0.4 93
2020-03-14 01:00:00 11.2 0 Calma 8 Sudoeste 0 956.3 0.3 92
2020-03-14 00:00:00 12.1 3 Noroeste 7 Sudeste 0 956.5 1 90
2020-03-13 23:00:00 13.9 5 Oeste 13 Sudoeste 0 956.3 1.3 81
2020-03-13 22:00:00 14 6 Oeste 14 Sudoeste 0 956 1.3 77
2020-03-13 21:00:00 14.8 7 Oeste 13 Oeste 0 955.5 1.3 70
2020-03-13 20:00:00 16.5 6 Oeste 12 Oeste 0 955 0.7 63
2020-03-13 19:00:00 18.1 5 Sudoeste 15 Oeste 0 954.7 0.2 54
2020-03-13 18:00:00 20.6 5 Oeste 19 Oeste 0 954.2 -0.4 39
2020-03-13 17:00:00 22.5 6 Oeste 21 Oeste 0 954.3 -0.9 36
2020-03-13 16:00:00 22.9 6 Oeste 20 Oeste 0 954.5 -1.4 37
2020-03-13 15:00:00 22.1 6 Sudoeste 21 Oeste 0 954.6 -1.7 37
2020-03-13 14:00:00 23.1 8 Oeste 20 Oeste 0 955.2 -1.4 35
2020-03-13 13:00:00 22.5 2 Noroeste 13 Sudeste 0 955.9 -0.6 39
2020-03-13 12:00:00 20.7 6 Este 20 Este 0 956.3 0.1 49
2020-03-13 11:00:00 16.9 4 Este 9 Este 0 956.6 0.7 56
2020-03-13 10:00:00 14.1 4 Este 8 Este 0 956.5 1.2 67
2020-03-13 09:00:00 9.9 0 Calma 5 Nordeste 0 956.2 0.9 83
2020-03-13 08:00:00 8 0 Calma 2 Nordeste 0 955.9 0.7 96
2020-03-13 07:00:00 8.2 0 Calma 2 Sudoeste 0 955.3 -0.1 94
2020-03-13 06:00:00 9.4 0 Calma 3 Sur 0 955.3 -0.2 92
2020-03-13 05:00:00 10.6 0 Calma 3 Sudeste 0 955.2 -0.6 87
2020-03-13 04:00:00 10.6 0 Calma 6 Sur 0 955.4 -0.9 82
2020-03-13 03:00:00 11 0 Calma 8 Sudoeste 0 955.5 -1 81
2020-03-13 02:00:00 13.5 2 Norte 7 Oeste 0 955.8 -0.6 70
2020-03-13 01:00:00 13.2 2 Oeste 18 Oeste 0 956.3 0.3 64
2020-03-13 00:00:00 15.3 0 Calma 11 Oeste 0 956.5 0.6 57
2020-03-12 23:00:00 17 0 Calma 8 Oeste 0 956.4 1.1 46
2020-03-12 22:00:00 16.9 0 Calma 8 Norte 0 956 0.7 46
2020-03-12 21:00:00 18.7 5 Oeste 14 Sudoeste 0 955.9 0.9 34
2020-03-12 20:00:00 20.4 8 Sudoeste 14 Oeste 0 955.3 0.6 30
2020-03-12 19:00:00 21.3 8 Sudoeste 16 Oeste 0 955.3 0.1 26
2020-03-12 18:00:00 24.8 4 Oeste 23 Sudoeste 0 955 -1.1 24
2020-03-12 17:00:00 25.4 9 Sudoeste 22 Sudoeste 0 954.7 -2.4 22
2020-03-12 16:00:00 26.6 15 Sur 27 Sur 0 955.2 -2.7 23
2020-03-12 15:00:00 25.1 9 Sur 23 Sudoeste 0 956.1 -2.7 26
2020-03-12 14:00:00 25.6 13 Sudoeste 22 Sur 0 957.1 -2 25
2020-03-12 13:00:00 24.7 5 Este 12 Este 0 957.9 -1.3 35
2020-03-12 12:00:00 21.3 6 Sudeste 11 Este 0 958.8 -0.1 43
2020-03-12 11:00:00 17.3 3 Este 13 Este 0 959.1 0.8 55
2020-03-12 10:00:00 14 3 Este 8 Este 0 959.2 1.4 67
2020-03-12 09:00:00 10.3 0 Calma 4 Nordeste 0 958.9 1.2 85
2020-03-12 08:00:00 7.1 0 Calma 5 Sudoeste 0 958.3 0.2 96
2020-03-12 07:00:00 8.1 0 Calma 5 Sudoeste 0 957.8 -0.9 96
2020-03-12 06:00:00 7.8 3 Sudoeste 9 Nordeste 0 957.7 -1.6 96
2020-03-12 05:00:00 8.8 2 Sudoeste 5 Sudoeste 0 958.1 -1.4 96
2020-03-12 04:00:00 9.3 0 Calma 4 Sudoeste 0 958.7 -1.5 96
2020-03-12 03:00:00 10.8 0 Calma 4 Oeste 0 959.3 -1.1 93
2020-03-12 02:00:00 10.3 0 Calma 4 Sudeste 0 959.5 -0.9 91
2020-03-12 01:00:00 11.7 0 Calma 4 Noroeste 0 960.2 0.4 88
2020-03-12 00:00:00 13.2 0 Calma 3 Sudeste 0 960.4 0.5 77
2020-03-11 23:00:00 14.8 0 Calma 3 Sudeste 0 960.4 0.6 72
2020-03-11 22:00:00 16.5 0 Calma 4 Sudoeste 0 959.8 -0.1 61
2020-03-11 21:00:00 18.9 0 Calma 10 Sudoeste 0 959.9 0.3 51
2020-03-11 20:00:00 20.6 5 Oeste 11 Oeste 0 959.8 0 50
2020-03-11 19:00:00 21.6 5 Sudoeste 8 Sudoeste 0 959.9 -0.1 46
2020-03-11 18:00:00 24.4 4 Oeste 13 Oeste 0 959.6 -0.8 32
2020-03-11 17:00:00 27.3 0 Calma 8 Norte 0 959.8 -1.8 25
2020-03-11 16:00:00 29 0 Calma 10 Noroeste 0 960 -2.2 23
2020-03-11 15:00:00 28.2 4 Este 12 Nordeste 0 960.4 -2.4 24
2020-03-11 14:00:00 25.5 3 Sudeste 10 Nordeste 0 961.6 -1.8 31
2020-03-11 13:00:00 25.1 3 Este 10 Este 0 962.2 -1.1 34
2020-03-11 12:00:00 19.6 6 Este 12 Nordeste 0 962.8 -0.3 43
2020-03-11 11:00:00 15.6 4 Este 10 Este 0 963.4 0.3 55
2020-03-11 10:00:00 11.8 4 Este 8 Nordeste 0 963.3 0.7 67
2020-03-11 09:00:00 9.2 2 Este 11 Este 0 963.1 0.5 77
2020-03-11 08:00:00 7.2 0 Calma -- -- 0 963.1 0.5 96
2020-03-11 07:00:00 5.3 0 Calma 3 Noroeste 0 962.6 0.1 96
2020-03-11 06:00:00 6.7 0 Calma 0 Calma 0 962.6 -0.6 96
2020-03-11 05:00:00 6.8 0 Calma 4 Noroeste 0 962.6 -1 95
2020-03-11 04:00:00 8.1 0 Calma 5 Sudoeste 0 962.5 -1.2 93
2020-03-11 03:00:00 8.4 2 Norte 5 Norte 0 963.2 -0.9 91
2020-03-11 02:00:00 9.3 0 Calma 3 Nordeste 0 963.6 -0.5 88
2020-03-11 01:00:00 10.2 2 Nordeste 4 Nordeste 0 963.7 0.1 81
2020-03-11 00:00:00 10.8 0 Calma 13 Sudoeste 0 964.1 0.7 74
2020-03-10 23:00:00 13.6 3 Sudoeste 14 Sudoeste 0 964.1 1.1 60
2020-03-10 22:00:00 14.7 0 Calma 9 Oeste 0 963.6 0.6 50
2020-03-10 21:00:00 17 6 Oeste 13 Sudoeste 0 963.4 0.6 43
2020-03-10 20:00:00 18.4 12 Sudoeste 15 Sudoeste 0 963 0.2 40
2020-03-10 19:00:00 20.6 7 Sudoeste 15 Sudoeste 0 963 0 36
2020-03-10 18:00:00 23.1 6 Sudoeste 13 Sudoeste 0 962.8 -1 29
2020-03-10 17:00:00 24.8 3 Oeste 13 Sur 0 962.8 -1.9 26
2020-03-10 16:00:00 24.7 3 Oeste 13 Oeste 0 963 -2.3 25
2020-03-10 15:00:00 23.3 7 Nordeste 14 Nordeste 0 963.8 -1.7 26
2020-03-10 14:00:00 23 2 Sudeste 11 Sudeste 0 964.7 -0.7 28
2020-03-10 13:00:00 20.9 5 Nordeste 13 Este 0 965.3 -0.4 30
2020-03-10 12:00:00 18 7 Este 12 Este 0 965.5 0.1 37
2020-03-10 11:00:00 14.4 4 Este 11 Este 0 965.4 0.4 49
2020-03-10 10:00:00 10.3 5 Este 9 Este 0 965.7 0.9 64
2020-03-10 09:00:00 8.2 0 Calma 5 Nordeste 0 965.4 1.1 76
2020-03-10 08:00:00 4.4 3 Norte 5 Norte 0 965 0.8 96
2020-03-10 07:00:00 4.1 0 Calma 4 Nordeste 0 964.8 0.7 96
2020-03-10 06:00:00 4.3 0 Calma 5 Sudoeste 0 964.3 -0.3 96
2020-03-10 05:00:00 6 5 Oeste 10 Oeste 0 964.2 -0.4 92
2020-03-10 04:00:00 5.6 0 Calma 5 Este 0 964.1 -0.3 93
2020-03-10 03:00:00 7.1 3 Sudoeste 7 Sudoeste 0 964.6 0.1 91
2020-03-10 02:00:00 6.5 3 Sudeste 14 Oeste 0 964.6 0.3 88
2020-03-10 01:00:00 8.7 3 Oeste 9 Oeste 0 964.4 0.4 85
2020-03-10 00:00:00 8.8 4 Oeste 10 Oeste 0 964.5 1.1 77
2020-03-09 23:00:00 10.1 5 Sudoeste 8 Sudoeste 0 964.3 1.4 70
2020-03-09 22:00:00 11 2 Sudoeste 9 Oeste 0 964 1.4 62
2020-03-09 21:00:00 12.1 6 Sudoeste 12 Oeste 0 963.4 1.6 56
2020-03-09 20:00:00 12.9 7 Oeste 15 Oeste 0 962.9 0.2 51
2020-03-09 19:00:00 15.2 5 Oeste 22 Sudoeste 0 962.6 0 43
2020-03-09 18:00:00 17.1 10 Sudoeste 22 Sudoeste 0 961.8 -1.3 40
2020-03-09 17:00:00 18.3 6 Oeste 17 Oeste 0 962.7 -1.2 34
2020-03-09 16:00:00 20.4 5 Sudoeste 15 Oeste 0 962.6 -2 29
2020-03-09 15:00:00 20.6 3 Oeste 13 Oeste 0 963.1 -1.9 25
2020-03-09 14:00:00 17.7 6 Sudoeste 16 Sudoeste 0 963.9 -1 33
2020-03-09 13:00:00 16.8 4 Oeste 13 Oeste 0 964.6 0.2 37
2020-03-09 12:00:00 14.5 4 Oeste 10 Oeste 0 965 0.7 47
2020-03-09 11:00:00 11.4 5 Este 10 Sudeste 0 964.9 1.2 66
2020-03-09 10:00:00 9.1 3 Este 9 Este 0 964.4 0.9 75
2020-03-09 09:00:00 6.2 3 Nordeste 6 Nordeste 0 964.3 0.6 88
2020-03-09 08:00:00 3.1 0 Calma 4 Sur 0 963.7 0.5 96
2020-03-09 07:00:00 3.8 0 Calma 4 Este 0 963.5 0.5 96
2020-03-09 06:00:00 3.4 0 Calma 5 Este 0 963.7 0 94
2020-03-09 05:00:00 4.6 0 Calma 12 Sudoeste 0 963.2 -0.8 94
2020-03-09 04:00:00 6.1 0 Calma 6 Sudoeste 0 963 -0.7 91
2020-03-09 03:00:00 7.1 3 Sudoeste 9 Sudoeste 0 963.7 -0.1 86
2020-03-09 02:00:00 8.4 4 Sudoeste 9 Oeste 0 964 0.4 77
2020-03-09 01:00:00 8.7 6 Sudoeste 14 Oeste 0 963.7 0.8 74
2020-03-09 00:00:00 9.2 3 Sudoeste 17 Oeste 0 963.8 0.3 68
2020-03-08 23:00:00 10.9 8 Oeste 16 Sudoeste 0 963.6 0.6 59
2020-03-08 22:00:00 11.8 0 Calma 11 Sudoeste 0 962.9 0.1 60
2020-03-08 21:00:00 12.3 5 Oeste 13 Sudoeste 0 963.5 0.7 55
2020-03-08 20:00:00 13.7 6 Oeste 12 Sudoeste 0 963 0.3 46
2020-03-08 19:00:00 15.2 5 Sudoeste 17 Oeste 0 962.8 0.6 40
2020-03-08 18:00:00 16.2 6 Sudoeste 18 Oeste 0 962.8 0.6 39
2020-03-08 17:00:00 17.7 6 Oeste 20 Oeste 0 962.7 -0.7 31
2020-03-08 16:00:00 19.4 8 Oeste 22 Sudoeste 0 962.2 -1.7 28
2020-03-08 15:00:00 19.4 10 Sudoeste 25 Sudoeste 0 962.2 -2.4 29
2020-03-08 14:00:00 18.5 9 Sudoeste 18 Sudoeste 0 963.4 -1.4 30
2020-03-08 13:00:00 17.8 4 Oeste 17 Sudoeste 0 963.9 -0.6 31
2020-03-08 12:00:00 14.6 4 Este 9 Este 0 964.6 0.3 44
2020-03-08 11:00:00 10.7 5 Nordeste 9 Este 0 964.8 0.9 59
2020-03-08 10:00:00 6.2 2 Este 7 Este 0 964.5 1.2 77
2020-03-08 09:00:00 1.3 3 Sudeste 5 Este 0 964.3 1.1 96
2020-03-08 08:00:00 0.2 0 Calma 6 Oeste 0 963.9 0.2 98
2020-03-08 07:00:00 0.4 0 Calma 4 Sudeste 0 963.3 -0.2 98
2020-03-08 06:00:00 1.6 0 Calma 4 Sudoeste 0 963.2 -0.7 98
2020-03-08 05:00:00 1.9 0 Calma 6 Noroeste 0 963.7 -0.9 96
2020-03-08 04:00:00 3.2 0 Calma 4 Sudoeste 0 963.5 -0.8 96
2020-03-08 03:00:00 3.6 0 Calma 2 Oeste 0 963.9 -0.4 94
2020-03-08 02:00:00 4.4 0 Calma 4 Oeste 0 964.6 0.1 91
2020-03-08 01:00:00 5.7 0 Calma 5 Noroeste 0 964.3 0.5 84
2020-03-08 00:00:00 6.3 2 Nordeste 7 Este 0 964.3 0.8 77
2020-03-07 23:00:00 8.8 0 Calma 10 Oeste 0 964.5 1.3 66
2020-03-07 22:00:00 9.5 6 Sudoeste 12 Sudoeste 0 963.8 1.2 63
2020-03-07 21:00:00 10.3 6 Sudoeste 14 Sudoeste 0 963.5 1.2 58
2020-03-07 20:00:00 10.8 10 Sudoeste 13 Sudoeste 0 963.2 0.2 54
2020-03-07 19:00:00 14.2 0 Calma 11 Sudoeste 0 962.6 -0.3 38
2020-03-07 18:00:00 16.1 0 Calma 13 Norte 0 962.3 -0.9 33
2020-03-07 17:00:00 17.8 3 Oeste 14 Sudoeste 0 963 -0.9 29
2020-03-07 16:00:00 16 4 Oeste 15 Oeste 0 962.9 -1.8 33
2020-03-07 15:00:00 16.5 6 Sudoeste 18 Sudoeste 0 963.2 -1.8 32
2020-03-07 14:00:00 16.1 5 Sur 14 Sur 0 963.9 -0.9 33
2020-03-07 13:00:00 15.9 5 Sudeste 14 Este 0 964.7 0 35
2020-03-07 12:00:00 13.5 5 Este 11 Sudeste 0 965 0.1 47
2020-03-07 11:00:00 8.2 4 Norte 10 Sudeste 0 964.8 0.8 68
2020-03-07 10:00:00 6 5 Nordeste 10 Nordeste 0 964.7 0.6 70
2020-03-07 09:00:00 3.7 2 Este 10 Este 0 964.9 1.2 81
2020-03-07 08:00:00 0.1 4 Este 9 Sudeste 0 964 0.8 96
2020-03-07 07:00:00 0.5 0 Calma 5 Nordeste 0 964.1 1.1 94
2020-03-07 06:00:00 0.9 2 Norte 6 Noroeste 0 963.7 0.6 92
2020-03-07 05:00:00 1.7 0 Calma 15 Sur 0 963.2 0.2 89
2020-03-07 04:00:00 3.1 3 Oeste 9 Noroeste 0 963 0.8 85
2020-03-07 03:00:00 4.4 3 Sudoeste 16 Sudeste 0 963.1 1 76
2020-03-07 02:00:00 6.2 8 Oeste 12 Oeste 0 963 1.4 60
2020-03-07 01:00:00 6.2 6 Sudoeste 15 Sudoeste 0 962.2 0.7 58
2020-03-07 00:00:00 6.2 5 Oeste 10 Oeste 0 962.1 1.6 60
2020-03-06 23:00:00 7.8 6 Oeste 12 Sudoeste 0 961.6 1.9 53
2020-03-06 22:00:00 8.2 6 Sudoeste 12 Sudoeste 0 961.5 2.6 53
2020-03-06 21:00:00 8.7 6 Sudoeste 13 Oeste 0 960.5 2.5 52
2020-03-06 20:00:00 9.6 8 Oeste 14 Oeste 0 959.7 2.1 46
2020-03-06 19:00:00 11.8 4 Noroeste 19 Norte 0 958.9 1.2 35
2020-03-06 18:00:00 13.1 6 Norte 21 Norte 0 958 0 33
2020-03-06 17:00:00 13.9 0 Calma 23 Oeste 0 957.6 -0.9 32
2020-03-06 16:00:00 16.2 4 Norte 27 Norte 0 957.7 -1.4 31
2020-03-06 15:00:00 15.5 4 Sudoeste 28 Oeste 0 958 -0.6 35
2020-03-06 14:00:00 14.1 8 Oeste 23 Oeste 0 958.5 0.3 38
2020-03-06 13:00:00 13.8 3 Oeste 25 Oeste 0 959.1 1.3 40
2020-03-06 12:00:00 12.5 8 Oeste 33 Oeste 0 958.6 1.2 47
2020-03-06 11:00:00 11.8 12 Oeste 35 Sudoeste 0 958.2 1.2 56
2020-03-06 10:00:00 11 10 Oeste 28 Oeste 0 957.8 0.9 66
2020-03-06 09:00:00 8.5 6 Oeste 24 Oeste 0 957.4 0.4 83
2020-03-06 08:00:00 6.8 7 Oeste 26 Oeste 0 957 0.1 92
2020-03-06 07:00:00 5.8 3 Oeste 18 Sudoeste 0 956.9 -0.3 92
2020-03-06 06:00:00 5.6 8 Oeste 21 Sudoeste 0 957 -0.2 91
2020-03-06 05:00:00 5.5 8 Sudoeste 20 Oeste 0 956.9 -0.1 91
2020-03-06 04:00:00 5.2 5 Oeste 15 Oeste 0 957.2 0.2 88
2020-03-06 03:00:00 6.1 8 Sudoeste 20 Sudoeste 0 957.2 0.3 83
2020-03-06 02:00:00 7 6 Oeste 15 Oeste 0 957 0.5 77
2020-03-06 01:00:00 7.1 6 Sudoeste 20 Oeste 0 957 1.1 77
2020-03-06 00:00:00 7.8 5 Sudoeste 18 Sudoeste 0 956.9 1.8 77
2020-03-05 23:00:00 8.9 9 Sudoeste 42 Oeste 0 956.5 1.7 72
2020-03-05 22:00:00 9.9 7 Oeste 29 Sudoeste 0 955.9 1.6 66
2020-03-05 21:00:00 11.1 8 Oeste 26 Oeste 0 955.1 1.2 61
2020-03-05 20:00:00 12.2 9 Sudoeste 28 Oeste 0 954.8 1 56
2020-03-05 19:00:00 12.4 10 Oeste 27 Oeste 0 954.3 0.7 51
2020-03-05 18:00:00 13.4 9 Oeste 33 Noroeste 0 953.9 0.5 48
2020-03-05 17:00:00 15.5 15 Oeste 36 Oeste 0 953.8 -0.1 43
2020-03-05 16:00:00 15.1 11 Oeste 37 Sudoeste 0 953.6 -0.3 45
2020-03-05 15:00:00 15.6 15 Oeste 38 Oeste 0 953.4 -1.2 48
2020-03-05 14:00:00 14.9 15 Oeste 35 Oeste 0 953.9 -0.7 56
2020-03-05 13:00:00 12.8 12 Sudoeste 33 Sudoeste 0.2 953.9 -0.3 91
2020-03-05 12:00:00 11.1 15 Sudoeste 36 Oeste 0.1 954.6 0.1 93
2020-03-05 11:00:00 11.6 11 Sudoeste 34 Sudoeste 0 954.6 0.1 87
2020-03-05 10:00:00 11.7 10 Sudoeste 21 Sudoeste 0 954.2 -0.3 84
2020-03-05 09:00:00 11.1 6 Sudoeste 22 Oeste 0 954.5 -0.1 86
2020-03-05 08:00:00 10.8 6 Sudoeste 26 Oeste 0 954.5 -0.6 90
2020-03-05 07:00:00 11.2 10 Sudoeste 28 Oeste 0 954.5 -1.5 89
2020-03-05 06:00:00 11.2 7 Sudoeste 18 Oeste 0 954.6 -2.1 94
2020-03-05 05:00:00 8.5 0 Calma 5 Oeste 0 955.1 -2.5 95
2020-03-05 04:00:00 8.8 0 Calma 5 Nordeste 0 956 -2.2 94
2020-03-05 03:00:00 8.4 3 Norte 5 Norte 0 956.7 -1.8 96
2020-03-05 02:00:00 8.5 0 Calma 4 Norte 0 957.6 -1.4 96
2020-03-05 01:00:00 8.2 0 Calma 5 Noroeste 0 958.2 -0.8 94
2020-03-05 00:00:00 9.1 0 Calma 6 Sudeste 0 958.5 -0.7 90
2020-03-04 23:00:00 9.2 0 Calma 6 Sudoeste 0 959 0.1 88
2020-03-04 22:00:00 10.7 5 Oeste 14 Oeste 0 959 0.1 84
2020-03-04 21:00:00 11 6 Oeste 16 Oeste 0 959.2 0.4 77
2020-03-04 20:00:00 12.3 9 Sudoeste 16 Sudoeste 0 958.9 0.1 71
2020-03-04 19:00:00 14.1 7 Sudoeste 21 Sudoeste 0 958.9 -0.1 62
2020-03-04 18:00:00 14.6 9 Sudoeste 21 Sudoeste 0 958.8 -1.1 61
2020-03-04 17:00:00 15.1 5 Oeste 22 Oeste 0 958.8 -1.6 58
2020-03-04 16:00:00 15.4 8 Oeste 20 Oeste 0 959 -2.1 53
2020-03-04 15:00:00 15.1 7 Sudoeste 24 Oeste 0 959.9 -1.7 60
2020-03-04 14:00:00 15.1 4 Oeste 23 Sudoeste 0 960.4 -1.2 55
2020-03-04 13:00:00 15.2 9 Oeste 22 Oeste 0 961.1 -0.5 54
2020-03-04 12:00:00 14.7 6 Oeste 24 Oeste 0 961.6 0.4 58
2020-03-04 11:00:00 13.6 6 Oeste 26 Oeste 0 961.6 1.2 67
2020-03-04 10:00:00 13.4 6 Oeste 27 Oeste 0 961.6 1.9 73
2020-03-04 09:00:00 11.4 6 Oeste 18 Oeste 0 961.2 0.4 85
2020-03-04 08:00:00 11.2 5 Sudoeste 20 Oeste 0 960.4 -0.2 87
2020-03-04 07:00:00 11.8 8 Oeste 20 Oeste 0 959.7 -0.8 89
2020-03-04 06:00:00 11.5 5 Sudoeste 16 Sudoeste 0 960.8 -0.2 96
2020-03-04 05:00:00 11.9 7 Oeste 19 Oeste 0 960.6 -0.6 94
2020-03-04 04:00:00 12.2 8 Oeste 24 Oeste 0 960.5 -0.6 94
2020-03-04 03:00:00 12.2 13 Oeste 24 Oeste 0 961 -0.2 89
2020-03-04 02:00:00 12.2 9 Oeste 27 Oeste 0 961.2 0.4 89
2020-03-04 01:00:00 12.3 7 Oeste 23 Oeste 0 961.1 0.9 89
2020-03-04 00:00:00 12.6 9 Oeste 27 Sudoeste 0 961.2 1.1 88
2020-03-03 23:00:00 13.2 9 Oeste 25 Oeste 0 960.8 1.1 85
2020-03-03 22:00:00 13.2 7 Oeste 26 Sudoeste 0 960.2 1.2 85
2020-03-03 21:00:00 13.2 11 Oeste 25 Oeste 0 960.1 1.8 84
2020-03-03 20:00:00 13 11 Sudoeste 32 Oeste 0 959.7 1.4 84
2020-03-03 19:00:00 12.8 14 Sudoeste 32 Sudoeste 0 959 1 84
2020-03-03 18:00:00 13.1 8 Sudoeste 26 Sudoeste 0 958.3 -0.2 78
2020-03-03 17:00:00 13.6 11 Oeste 36 Oeste 0 958.3 -0.4 75
2020-03-03 16:00:00 12.7 14 Sudoeste 35 Sudoeste 0 958 -1.4 82
2020-03-03 15:00:00 12.7 10 Sudoeste 59 Oeste 0 958.5 -1.5 82
2020-03-03 14:00:00 12.2 13 Oeste 33 Oeste 0 958.7 -1.2 77
2020-03-03 13:00:00 10.7 7 Oeste 38 Sudoeste 0 959.4 -0.5 81
2020-03-03 12:00:00 9.6 9 Sudoeste 27 Oeste 0 960 0.3 77
2020-03-03 11:00:00 9.5 12 Sudoeste 27 Sudoeste 0 959.9 1.2 77
2020-03-03 10:00:00 8.9 7 Oeste 20 Oeste 0 959.9 1 82
2020-03-03 09:00:00 8.3 6 Oeste 24 Oeste 0 959.7 1.3 86
2020-03-03 08:00:00 6.9 8 Sudoeste 24 Oeste 0 958.7 0 88
2020-03-03 07:00:00 6.8 6 Oeste 22 Sudoeste 0 958.9 0.4 89
2020-03-03 06:00:00 6.2 6 Oeste 24 Oeste 0 958.4 -0.9 88
2020-03-03 05:00:00 6 0 Calma 15 Sudoeste 0 958.7 -0.7 86
2020-03-03 04:00:00 6.1 10 Sudoeste 15 Sudoeste 0 958.5 -0.8 83
2020-03-03 03:00:00 5.4 0 Calma 12 Oeste 0 959.3 0.6 75
2020-03-03 02:00:00 6.4 6 Oeste 19 Sudoeste 0 959.4 0.7 67
2020-03-03 01:00:00 6.8 10 Sudoeste 17 Sudoeste 0 959.3 1.2 63
2020-03-03 00:00:00 6.6 5 Oeste 13 Oeste 0 958.7 1.6 62
2020-03-02 23:00:00 7.7 8 Oeste 17 Sudoeste 0 958.7 2.3 58
2020-03-02 22:00:00 8.7 6 Oeste 19 Oeste 0 958.1 2.6 55
2020-03-02 21:00:00 9.1 8 Oeste 21 Sudoeste 0 957.1 3 55
2020-03-02 20:00:00 9.8 5 Oeste 25 Sudoeste 0 956.4 3.1 50
2020-03-02 19:00:00 10.7 9 Oeste 31 Oeste 0 955.5 3.4 45
2020-03-02 18:00:00 12.6 9 Oeste 39 Oeste 0 954.1 2.2 43
2020-03-02 17:00:00 13.4 15 Oeste 45 Noroeste 0 953.3 1.4 43
2020-03-02 16:00:00 14.4 12 Oeste 46 Oeste 0 952.1 0.7 42
2020-03-02 15:00:00 14.7 12 Oeste 41 Oeste 0 951.9 1 46
2020-03-02 14:00:00 13.1 14 Oeste 49 Oeste 0 951.9 1.1 48
2020-03-02 13:00:00 15.1 13 Oeste 50 Oeste 0 951.4 1.6 46
2020-03-02 12:00:00 13.8 17 Oeste 39 Oeste 0 950.9 2.6 50
2020-03-02 11:00:00 14.2 12 Oeste 44 Oeste 0 950.8 3.7 54
2020-03-02 10:00:00 13.1 12 Oeste 47 Oeste 0 949.8 3.7 53
2020-03-02 09:00:00 12.5 14 Oeste 46 Oeste 0.4 948.3 2.9 77
2020-03-02 08:00:00 11.1 17 Oeste 52 Sudoeste 2.2 947.1 0.1 93
2020-03-02 07:00:00 11.2 22 Sudoeste 59 Sudoeste 0.6 946.1 -1.5 92
2020-03-02 06:00:00 11.6 24 Sudoeste 50 Sudoeste 0 945.4 -3.4 83
2020-03-02 05:00:00 10.9 22 Sudoeste 54 Sudoeste 1.8 947 -2.8 90
2020-03-02 04:00:00 11 26 Sudoeste 59 Sudoeste 3.4 947.6 -2.7 91
2020-03-02 03:00:00 11.2 21 Sudoeste 49 Sudoeste 4.1 948.8 -2 91
2020-03-02 02:00:00 11.2 18 Sudoeste 68 Sudoeste 0.8 949.8 -1.8 87
2020-03-02 01:00:00 11.8 18 Sudoeste 39 Sudoeste 4.4 950.3 -1.9 90
2020-03-02 00:00:00 12.1 20 Sudoeste 36 Sudoeste 1.3 950.8 -1.6 92